Stations météo

réclame
Mon MeteoGroup
Chiavari, Italie (16123): Température de l'air & dewpoint: 18.05.2019 03:00:00 - 24.05.2019 03:00:00 (CEST)Chiavari, Italie (16123): Vitesse du vent: 18.05.2019 03:00:00 - 24.05.2019 03:00:00 (CEST)Chiavari, Italie (16123): Direction du vent: 18.05.2019 03:00:00 - 24.05.2019 03:00:00 (CEST)Chiavari, Italie (16123): reduced air pressure: 18.05.2019 03:00:00 - 24.05.2019 03:00:00 (CEST)
Date & Time tt [°C] td [°C] ff [km/h] ff [knt] dd ppp [hPa]
24.05.2019 03:00:00 - - - - - -
24.05.2019 02:00:00 14,6 12,6 9 5 ENE 1015,8
24.05.2019 01:00:00 14,7 12,8 4 2 NE 1016,0
24.05.2019 00:00:00 15,2 13,2 4 2 NNE 1015,9
23.05.2019 23:00:00 16,2 13,4 2 1 NNE 1016,1
23.05.2019 22:00:00 16,7 13,3 2 1 SSE 1016,0
23.05.2019 21:00:00 17,9 13,9 0 0 N 1015,5
23.05.2019 20:00:00 18,0 13,6 5 3 SSW 1015,4
23.05.2019 19:00:00 18,6 14,0 9 5 S 1015,3
23.05.2019 18:00:00 19,0 14,4 9 5 S 1015,4
23.05.2019 17:00:00 18,7 13,5 11 6 SSW 1015,9
23.05.2019 16:00:00 - - - - - -
23.05.2019 15:00:00 19,3 13,4 9 5 SSW 1016,7
23.05.2019 14:00:00 19,0 13,5 11 6 SSW 1017,2
23.05.2019 13:00:00 18,7 13,5 13 7 W 1017,3
23.05.2019 12:00:00 18,3 13,7 13 7 SW 1017,3
23.05.2019 11:00:00 18,1 13,9 9 5 SW 1017,1
23.05.2019 10:00:00 17,5 13,3 8 4 SSE 1017,0
23.05.2019 09:00:00 15,6 12,1 5 3 ENE 1016,9
23.05.2019 08:00:00 13,0 11,2 9 5 ENE 1016,9
23.05.2019 07:00:00 11,7 10,3 13 7 NE 1017,0
23.05.2019 06:00:00 11,5 10,1 11 6 NE 1016,9
23.05.2019 05:00:00 12,0 10,4 11 6 NE 1016,9
23.05.2019 04:00:00 12,2 10,6 9 5 NNE 1016,9
23.05.2019 03:00:00 12,6 11,0 13 7 NNE 1016,9
23.05.2019 02:00:00 13,3 11,7 15 8 NNE 1016,9
23.05.2019 01:00:00 - - - - - -
23.05.2019 00:00:00 - - - - - -
22.05.2019 23:00:00 15,1 12,9 9 5 NE 1016,4
22.05.2019 22:00:00 - - - - - -
22.05.2019 21:00:00 18,1 13,7 2 1 N 1015,5
22.05.2019 20:00:00 18,4 12,8 2 1 W 1015,4
22.05.2019 19:00:00 18,8 13,3 8 4 SW 1015,6
22.05.2019 18:00:00 19,7 12,8 9 5 SSW 1015,5
22.05.2019 17:00:00 19,2 11,7 5 3 SSW 1015,7
22.05.2019 16:00:00 19,4 12,6 11 6 SW 1015,9
22.05.2019 15:00:00 19,0 12,0 9 5 S 1016,0
22.05.2019 14:00:00 19,6 12,8 8 4 S 1016,1
22.05.2019 13:00:00 18,8 12,5 5 3 SSW 1016,3
22.05.2019 12:00:00 17,1 13,9 2 1 SSW 1016,4
22.05.2019 11:00:00 15,8 13,4 4 2 NNE 1016,0
22.05.2019 10:00:00 14,8 12,9 5 3 NNE 1016,0
22.05.2019 09:00:00 14,4 12,4 4 2 N 1015,7
22.05.2019 08:00:00 13,7 12,1 9 5 NNE 1015,3
22.05.2019 07:00:00 13,6 11,8 8 4 E 1015,0
22.05.2019 06:00:00 13,5 11,7 5 3 ENE 1014,7
22.05.2019 05:00:00 13,4 11,3 11 6 NE 1014,3
22.05.2019 04:00:00 13,4 11,6 11 6 ENE 1014,2
22.05.2019 03:00:00 13,1 11,5 9 5 ENE 1014,1
22.05.2019 02:00:00 13,8 11,8 8 4 NE 1014,4
22.05.2019 01:00:00 14,4 12,4 9 5 NNE 1014,6
22.05.2019 00:00:00 14,9 12,7 4 2 NNE 1014,9
21.05.2019 23:00:00 15,4 12,7 4 2 N 1014,5
21.05.2019 22:00:00 16,5 12,6 2 1 NE 1014,2
21.05.2019 21:00:00 17,0 12,9 5 3 SW 1013,6
21.05.2019 20:00:00 17,6 13,4 11 6 SSW 1012,8
21.05.2019 19:00:00 17,8 12,6 15 8 S 1012,7
21.05.2019 18:00:00 18,0 13,6 15 8 WSW 1012,6
21.05.2019 17:00:00 18,7 14,1 22 12 SSW 1012,3
21.05.2019 16:00:00 18,7 14,1 15 8 SW 1012,2
21.05.2019 15:00:00 18,8 14,4 18 10 SSW 1012,0
21.05.2019 14:00:00 18,8 14,4 16 9 SW 1011,7
21.05.2019 13:00:00 18,2 14,4 15 8 S 1011,6
21.05.2019 12:00:00 18,3 14,3 16 9 S 1011,1
21.05.2019 11:00:00 17,1 13,9 8 4 W 1010,7
21.05.2019 10:00:00 14,8 12,6 8 4 NE 1010,3
21.05.2019 09:00:00 13,9 11,9 9 5 ENE 1009,9
21.05.2019 08:00:00 13,0 11,5 11 6 NE 1009,5
21.05.2019 07:00:00 12,8 11,4 13 7 NE 1009,2
21.05.2019 06:00:00 12,8 11,4 13 7 NE 1008,9
21.05.2019 05:00:00 12,9 11,5 8 4 ENE 1008,8
21.05.2019 04:00:00 13,2 11,7 9 5 NNE 1009,1
21.05.2019 03:00:00 13,4 11,8 8 4 NNE 1009,3
21.05.2019 02:00:00 13,4 11,8 9 5 NE 1009,3
21.05.2019 01:00:00 13,5 11,9 9 5 NNE 1009,7
21.05.2019 00:00:00 13,6 11,8 9 5 NE 1009,5
20.05.2019 23:00:00 13,7 11,7 8 4 NNE 1009,3
20.05.2019 22:00:00 14,0 11,8 9 5 N 1008,9
20.05.2019 21:00:00 14,5 12,0 5 3 NE 1008,6
20.05.2019 20:00:00 15,4 13,2 5 3 N 1008,4
20.05.2019 19:00:00 15,6 13,4 4 2 NNE 1008,4
20.05.2019 18:00:00 15,8 13,4 0 0 N 1008,3
20.05.2019 17:00:00 15,6 12,7 5 3 S 1008,2
20.05.2019 16:00:00 15,1 13,1 8 4 SSW 1007,9
20.05.2019 15:00:00 15,0 13,5 4 2 WSW 1007,8
20.05.2019 14:00:00 15,0 13,3 11 6 SSW 1007,5
20.05.2019 13:00:00 14,6 13,1 9 5 SSW 1007,0
20.05.2019 12:00:00 14,7 13,4 11 6 SW 1006,8
20.05.2019 11:00:00 14,2 12,9 9 5 S 1006,4
20.05.2019 10:00:00 14,3 13,0 11 6 SW 1005,8
20.05.2019 09:00:00 13,8 12,5 5 3 NNE 1005,6
20.05.2019 08:00:00 13,3 12,0 4 2 NE 1005,2
20.05.2019 07:00:00 13,2 11,9 4 2 ENE 1004,9
20.05.2019 06:00:00 13,3 12,0 5 3 NNE 1004,9
20.05.2019 05:00:00 13,3 11,8 4 2 NNE 1004,8
20.05.2019 04:00:00 13,4 12,1 5 3 NNE 1004,9
20.05.2019 03:00:00 13,4 12,1 5 3 ENE 1005,1
20.05.2019 02:00:00 13,5 12,0 4 2 ENE 1005,4
20.05.2019 01:00:00 13,7 12,1 4 2 NE 1005,6
20.05.2019 00:00:00 13,9 12,3 4 2 NE 1005,7
19.05.2019 23:00:00 14,0 12,4 5 3 NE 1005,8
19.05.2019 22:00:00 14,5 12,8 2 1 NNE 1005,5
19.05.2019 21:00:00 14,4 12,6 4 2 SE 1005,2
19.05.2019 20:00:00 15,5 12,4 9 5 S 1004,8
19.05.2019 19:00:00 16,2 11,9 5 3 W 1004,5
19.05.2019 18:00:00 16,4 12,5 11 6 SSW 1004,5
19.05.2019 17:00:00 16,0 12,3 8 4 S 1004,3
19.05.2019 16:00:00 16,1 12,0 8 4 SSW 1004,4
19.05.2019 15:00:00 16,2 11,9 8 4 SW 1004,3
19.05.2019 14:00:00 16,4 12,9 13 7 S 1004,0
19.05.2019 13:00:00 15,8 12,7 5 3 SW 1003,8
19.05.2019 12:00:00 16,0 11,9 9 5 SSW 1003,7
19.05.2019 11:00:00 15,6 12,7 4 2 WSW 1003,7
19.05.2019 10:00:00 14,7 12,7 0 0 N 1003,6
19.05.2019 09:00:00 13,9 12,3 4 2 NE 1003,6
19.05.2019 08:00:00 13,3 12,0 8 4 NE 1003,4
19.05.2019 07:00:00 12,9 11,5 5 3 ENE 1003,5
19.05.2019 06:00:00 13,1 11,6 9 5 NE 1003,4
19.05.2019 05:00:00 13,3 11,8 11 6 N 1003,6
19.05.2019 04:00:00 13,4 11,9 9 5 NNE 1004,0
19.05.2019 03:00:00 13,6 12,0 9 5 ENE 1004,5
19.05.2019 02:00:00 13,8 12,2 8 4 NNE 1005,1
19.05.2019 01:00:00 14,5 11,8 8 4 ENE 1005,3
19.05.2019 00:00:00 15,3 11,6 9 5 N 1005,2
18.05.2019 23:00:00 15,5 11,2 9 5 N 1005,1
18.05.2019 22:00:00 15,9 11,0 5 3 NE 1005,0
18.05.2019 21:00:00 16,2 11,9 9 5 NNE 1004,6
18.05.2019 20:00:00 16,9 13,2 5 3 N 1004,3
18.05.2019 19:00:00 17,5 12,1 2 1 NW 1004,0
18.05.2019 18:00:00 17,4 12,7 8 4 NNE 1003,9
18.05.2019 17:00:00 16,5 12,6 2 1 N 1004,0
18.05.2019 16:00:00 16,0 11,7 8 4 NNE 1003,8
18.05.2019 15:00:00 16,0 11,7 11 6 NNE 1004,0
18.05.2019 14:00:00 16,5 9,1 9 5 N 1004,2
18.05.2019 13:00:00 17,1 6,8 15 8 ENE 1003,9
18.05.2019 12:00:00 16,5 7,6 13 7 NE 1003,6
18.05.2019 11:00:00 16,6 8,5 16 9 NE 1003,1
18.05.2019 10:00:00 15,8 9,6 18 10 ENE 1002,9
18.05.2019 09:00:00 14,0 11,7 13 7 NNE 1003,1
18.05.2019 08:00:00 13,4 11,4 13 7 NNE 1003,2
18.05.2019 07:00:00 13,3 11,2 13 7 NNE 1003,3
18.05.2019 06:00:00 13,5 10,8 2 1 NE 1003,8
18.05.2019 05:00:00 13,6 10,6 9 5 N 1003,4
18.05.2019 04:00:00 13,8 10,9 16 9 NE 1003,9
18.05.2019 03:00:00 13,8 10,7 15 8 NE 1004,7

tt = Température de l'air
td = dewpoint
ff = Vitesse du vent
dd = Direction du vent
ppp = reduced air pressure

stations d'obs. à proximité